createdAt,value
2023-04-04T00:06:46.117Z,100.00
2023-04-04T00:16:48.389Z,100.00
2023-04-04T00:26:50.918Z,100.00
2023-04-04T00:36:54.086Z,100.00
2023-04-04T00:46:57.186Z,100.00
2023-04-04T00:56:59.599Z,100.00
2023-04-04T01:07:03.558Z,100.00
2023-04-04T01:17:06.447Z,100.00
2023-04-04T01:27:09.068Z,100.00
2023-04-04T01:37:46.873Z,100.00
2023-04-04T01:47:49.220Z,100.00
2023-04-04T01:57:51.768Z,100.00
2023-04-04T02:07:54.260Z,100.00
2023-04-04T02:17:57.058Z,100.00
2023-04-04T02:27:59.730Z,100.00
2023-04-04T02:38:02.396Z,100.00
2023-04-04T02:48:05.097Z,100.00
2023-04-04T02:58:07.817Z,100.00
2023-04-04T03:08:10.178Z,100.00
2023-04-04T03:18:13.220Z,100.00
2023-04-04T03:28:15.535Z,100.00
2023-04-04T03:38:18.721Z,100.00
2023-04-04T03:48:21.284Z,100.00
2023-04-04T03:58:24.880Z,100.00
2023-04-04T04:08:28.315Z,100.00
2023-04-04T04:18:30.740Z,100.00
2023-04-04T04:28:34.425Z,100.00
2023-04-04T04:38:37.197Z,100.00
2023-04-04T04:48:39.596Z,100.00
2023-04-04T04:58:42.113Z,100.00
2023-04-04T05:08:44.610Z,100.00
2023-04-04T05:18:47.425Z,100.00
2023-04-04T05:28:49.905Z,100.00
2023-04-04T05:38:52.483Z,100.00
2023-04-04T05:48:55.022Z,100.00
2023-04-04T05:58:57.516Z,100.00
2023-04-04T06:08:59.820Z,100.00
2023-04-04T06:19:02.298Z,100.00
2023-04-04T06:29:05.339Z,100.00
2023-04-04T06:39:08.184Z,100.00
2023-04-04T06:49:11.107Z,100.00
2023-04-04T06:59:13.796Z,100.00
2023-04-04T07:09:28.040Z,97.03
2023-04-04T07:19:31.900Z,100.00
2023-04-04T07:29:34.569Z,91.63
2023-04-04T07:39:37.144Z,81.94
2023-04-04T07:49:42.924Z,81.40
2023-04-04T07:59:45.315Z,76.77
2023-04-04T08:09:48.297Z,73.53
2023-04-04T08:19:50.912Z,71.47
2023-04-04T08:29:53.475Z,66.14
2023-04-04T08:39:56.083Z,64.56
2023-04-04T08:50:02.042Z,56.46
2023-04-04T09:00:07.534Z,58.31
2023-04-04T09:10:14.668Z,52.43
2023-04-04T09:20:41.383Z,54.41
2023-04-04T09:30:45.651Z,53.78
2023-04-04T09:40:48.558Z,51.84
2023-04-04T09:50:53.470Z,50.45
2023-04-04T10:00:58.303Z,49.27
2023-04-04T10:11:10.563Z,51.06
2023-04-04T10:21:16.157Z,49.39
2023-04-04T10:31:26.574Z,48.27
2023-04-04T10:41:33.143Z,50.13
2023-04-04T10:51:45.137Z,49.37
2023-04-04T11:01:58.910Z,48.05
2023-04-04T11:12:09.334Z,46.65
2023-04-04T11:22:12.348Z,46.78
2023-04-04T11:32:53.023Z,47.11
2023-04-04T11:43:08.933Z,46.43
2023-04-04T11:53:13.519Z,45.97
2023-04-04T12:03:18.935Z,44.73
2023-04-04T12:13:21.881Z,46.68
2023-04-04T12:23:24.740Z,43.05
2023-04-04T12:33:27.461Z,42.78
2023-04-04T12:43:32.012Z,47.78
2023-04-04T12:53:35.687Z,42.63
2023-04-04T13:03:39.938Z,39.19
2023-04-04T13:13:44.650Z,39.75
2023-04-04T13:23:47.305Z,39.08
2023-04-04T13:33:49.767Z,41.05
2023-04-04T13:43:52.890Z,39.66
2023-04-04T13:53:55.471Z,40.88
2023-04-04T14:03:58.216Z,39.13
2023-04-04T14:14:01.259Z,43.15
2023-04-04T14:24:03.992Z,39.83
2023-04-04T14:34:07.113Z,40.01
2023-04-04T14:44:10.287Z,38.12
2023-04-04T14:54:13.206Z,40.36
2023-04-04T15:04:15.847Z,38.08
2023-04-04T15:14:19.486Z,38.87
2023-04-04T15:24:21.916Z,41.24
2023-04-04T15:34:26.001Z,38.95
2023-04-04T15:44:28.661Z,39.36
2023-04-04T15:54:32.060Z,40.30
2023-04-04T16:04:34.937Z,40.96
2023-04-04T16:14:37.274Z,40.70
2023-04-04T16:24:39.829Z,41.01
2023-04-04T16:34:42.862Z,42.04
2023-04-04T16:44:49.422Z,42.63
2023-04-04T16:54:54.802Z,43.04
2023-04-04T17:04:57.365Z,44.41
2023-04-04T17:15:00.056Z,45.18
2023-04-04T17:25:03.800Z,43.98
2023-04-04T17:35:07.440Z,47.26
2023-04-04T17:45:11.145Z,44.61
2023-04-04T17:55:13.733Z,46.77
2023-04-04T18:05:17.080Z,49.33
2023-04-04T18:15:20.375Z,49.65
2023-04-04T18:25:22.966Z,50.46
2023-04-04T18:35:25.484Z,51.35
2023-04-04T18:45:39.254Z,53.65
2023-04-04T18:55:43.413Z,55.48
2023-04-04T19:05:48.936Z,62.56
2023-04-04T19:15:51.544Z,62.64
2023-04-04T19:25:56.039Z,68.73
2023-04-04T19:36:02.766Z,73.28
2023-04-04T19:46:16.220Z,76.52
2023-04-04T19:56:21.668Z,80.39
2023-04-04T20:06:28.635Z,84.11
2023-04-04T20:16:31.679Z,88.09
2023-04-04T20:27:03.270Z,91.56
2023-04-04T20:37:20.266Z,87.43
2023-04-04T20:47:45.553Z,82.85
2023-04-04T20:57:48.834Z,79.36
2023-04-04T21:07:51.334Z,77.74
2023-04-04T21:17:53.937Z,74.63
2023-04-04T21:27:56.441Z,76.61
2023-04-04T21:37:58.943Z,75.15
2023-04-04T21:48:01.514Z,78.88
2023-04-04T21:58:04.043Z,85.45
2023-04-04T22:08:06.919Z,90.24
2023-04-04T22:18:15.038Z,97.89
2023-04-04T22:28:18.591Z,100.00
2023-04-04T22:38:21.397Z,100.00
2023-04-04T22:48:23.873Z,100.00
2023-04-04T22:58:26.514Z,100.00
2023-04-04T23:08:29.047Z,100.00
2023-04-04T23:18:31.398Z,100.00
2023-04-04T23:28:33.743Z,100.00
2023-04-04T23:38:36.392Z,100.00
2023-04-04T23:48:38.795Z,100.00
2023-04-04T23:58:41.685Z,100.00
